createdAt,value
2023-03-10T00:03:21.903Z,98271.56
2023-03-10T00:08:26.097Z,98265.13
2023-03-10T00:13:27.907Z,98259.59
2023-03-10T00:18:28.563Z,98251.56
2023-03-10T00:23:30.587Z,98247.25
2023-03-10T00:28:31.214Z,98247.03
2023-03-10T00:33:33.153Z,98229.00
2023-03-10T00:38:35.853Z,98248.59
2023-03-10T00:43:36.891Z,98220.13
2023-03-10T00:48:38.050Z,98204.22
2023-03-10T00:53:41.425Z,98202.59
2023-03-10T00:58:42.286Z,98196.91
2023-03-10T01:03:43.125Z,98177.81
2023-03-10T01:08:45.112Z,98166.44
2023-03-10T01:13:47.874Z,98155.13
2023-03-10T01:18:48.729Z,98149.19
2023-03-10T01:23:50.849Z,98147.28
2023-03-10T01:28:51.516Z,98134.34
2023-03-10T01:33:52.445Z,98122.13
2023-03-10T01:38:56.200Z,98107.16
2023-03-10T01:43:59.122Z,98101.00
2023-03-10T01:49:03.556Z,98090.84
2023-03-10T01:54:10.404Z,98082.84
2023-03-10T01:59:12.098Z,98075.97
2023-03-10T02:04:17.437Z,98074.25
2023-03-10T02:09:21.103Z,98059.44
2023-03-10T02:14:21.845Z,98061.84
2023-03-10T02:19:38.711Z,98052.44
2023-03-10T02:24:48.024Z,98037.66
2023-03-10T02:29:59.848Z,98025.28
2023-03-10T02:35:05.595Z,98021.09
2023-03-10T02:40:29.756Z,98018.72
2023-03-10T02:45:34.096Z,98018.09
2023-03-10T02:50:38.954Z,98013.69
2023-03-10T02:55:39.675Z,98000.03
2023-03-10T03:00:44.898Z,97995.53
2023-03-10T03:05:48.245Z,97981.59
2023-03-10T03:10:49.464Z,97971.03
2023-03-10T03:15:52.121Z,97963.25
2023-03-10T03:20:53.189Z,97945.88
2023-03-10T03:25:53.922Z,97949.81
2023-03-10T03:30:57.668Z,97944.56
2023-03-10T03:35:58.533Z,97946.38
2023-03-10T03:40:59.671Z,97938.59
2023-03-10T03:46:02.447Z,97924.78
2023-03-10T03:51:03.614Z,97908.63
2023-03-10T03:56:10.973Z,97900.69
2023-03-10T04:01:15.616Z,97889.56
2023-03-10T04:06:21.122Z,97888.44
2023-03-10T04:11:22.073Z,97877.53
2023-03-10T04:16:27.060Z,97873.25
2023-03-10T04:21:27.862Z,97877.53
2023-03-10T04:26:31.050Z,97866.44
2023-03-10T04:31:33.388Z,97864.34
2023-03-10T04:36:35.820Z,97858.19
2023-03-10T04:41:37.973Z,97848.13
2023-03-10T04:46:41.006Z,97846.91
2023-03-10T04:51:42.643Z,97840.84
2023-03-10T04:56:43.603Z,97845.09
2023-03-10T05:01:46.217Z,97840.81
2023-03-10T05:06:51.460Z,97830.38
2023-03-10T05:11:57.213Z,97828.78
2023-03-10T05:17:00.541Z,97825.47
2023-03-10T05:22:02.203Z,97823.09
2023-03-10T05:27:05.539Z,97823.94
2023-03-10T05:32:08.924Z,97816.44
2023-03-10T05:37:13.284Z,97811.25
2023-03-10T05:42:14.140Z,97822.78
2023-03-10T05:47:19.205Z,97813.56
2023-03-10T05:52:21.052Z,97798.88
2023-03-10T05:57:22.771Z,97800.84
2023-03-10T06:02:24.749Z,97800.00
2023-03-10T06:07:25.414Z,97805.91
2023-03-10T06:12:26.055Z,97798.13
2023-03-10T06:17:28.195Z,97806.81
2023-03-10T06:22:31.156Z,97808.16
2023-03-10T06:27:32.776Z,97808.69
2023-03-10T06:32:36.359Z,97808.63
2023-03-10T06:37:37.068Z,97801.44
2023-03-10T06:42:37.746Z,97795.28
2023-03-10T06:47:40.028Z,97801.50
2023-03-10T06:52:42.574Z,97805.00
2023-03-10T06:57:43.407Z,97803.16
2023-03-10T07:02:45.480Z,97805.94
2023-03-10T07:07:46.274Z,97810.22
2023-03-10T07:12:49.778Z,97797.53
2023-03-10T07:17:51.761Z,97802.59
2023-03-10T07:22:52.991Z,97808.94
2023-03-10T07:27:53.642Z,97808.59
2023-03-10T07:32:55.722Z,97812.84
2023-03-10T07:37:56.673Z,97816.44
2023-03-10T07:42:57.349Z,97807.66
2023-03-10T07:48:01.863Z,97811.75
2023-03-10T07:53:02.680Z,97801.91
2023-03-10T07:58:03.428Z,97818.06
2023-03-10T08:03:05.422Z,97806.66
2023-03-10T08:08:06.555Z,97803.19
2023-03-10T08:13:07.265Z,97811.19
2023-03-10T08:18:09.708Z,97814.44
2023-03-10T08:23:10.413Z,97807.09
2023-03-10T08:28:11.107Z,97816.94
2023-03-10T08:33:13.274Z,97801.69
2023-03-10T08:38:13.988Z,97817.25
2023-03-10T08:43:14.931Z,97805.22
2023-03-10T08:48:16.979Z,97806.09
2023-03-10T08:53:17.702Z,97800.84
2023-03-10T08:58:18.582Z,97808.56
2023-03-10T09:03:21.396Z,97797.56
2023-03-10T09:08:22.455Z,97814.63
2023-03-10T09:13:23.296Z,97808.19
2023-03-10T09:18:25.268Z,97801.91
2023-03-10T09:23:25.938Z,97802.25
2023-03-10T09:28:26.577Z,97796.84
2023-03-10T09:33:28.634Z,97801.75
2023-03-10T09:38:29.831Z,97809.38
2023-03-10T09:43:37.764Z,97815.66
2023-03-10T09:48:51.340Z,97805.00
2023-03-10T09:54:03.196Z,97810.84
2023-03-10T09:59:11.282Z,97799.66
2023-03-10T10:04:16.833Z,97791.25
2023-03-10T10:09:27.312Z,97793.31
2023-03-10T10:14:31.599Z,97791.97
2023-03-10T10:19:36.772Z,97784.81
2023-03-10T10:24:38.627Z,97779.59
2023-03-10T10:29:42.361Z,97773.94
2023-03-10T10:34:46.551Z,97766.63
2023-03-10T10:39:50.809Z,97784.72
2023-03-10T10:44:54.346Z,97781.38
2023-03-10T10:50:09.353Z,97768.50
2023-03-10T10:55:29.322Z,97786.91
2023-03-10T11:00:32.469Z,97784.56
2023-03-10T11:05:37.615Z,97786.22
2023-03-10T11:10:39.184Z,97773.94
2023-03-10T11:15:50.422Z,97780.00
2023-03-10T11:20:59.588Z,97779.47
2023-03-10T11:26:05.316Z,97783.28
2023-03-10T11:31:18.489Z,97773.47
2023-03-10T11:36:31.721Z,97766.72
2023-03-10T11:41:37.340Z,97752.28
2023-03-10T11:46:44.461Z,97742.97
2023-03-10T11:51:50.044Z,97737.56
2023-03-10T11:56:51.951Z,97739.22
2023-03-10T12:01:56.547Z,97741.56
2023-03-10T12:07:05.601Z,97730.94
2023-03-10T12:12:08.459Z,97712.63
2023-03-10T12:17:12.980Z,97722.47
2023-03-10T12:22:39.083Z,97712.53
2023-03-10T12:28:14.386Z,97705.94
2023-03-10T12:33:44.228Z,97702.69
2023-03-10T12:38:51.071Z,97699.69
2023-03-10T12:43:56.785Z,97707.59
2023-03-10T12:49:13.715Z,97707.78
2023-03-10T12:54:48.993Z,97698.53
2023-03-10T12:59:58.080Z,97696.88
2023-03-10T13:05:03.764Z,97695.16
2023-03-10T13:10:07.818Z,97672.09
2023-03-10T13:15:24.806Z,97661.06
2023-03-10T13:20:25.632Z,97653.44
2023-03-10T13:25:28.520Z,97652.06
2023-03-10T13:30:31.378Z,97639.56
2023-03-10T13:35:36.050Z,97625.31
2023-03-10T13:40:42.218Z,97639.84
2023-03-10T13:45:43.482Z,97628.00
2023-03-10T13:50:44.254Z,97621.97
2023-03-10T13:55:46.298Z,97617.47
2023-03-10T14:00:50.636Z,97602.69
2023-03-10T14:05:51.376Z,97601.09
2023-03-10T14:10:53.484Z,97596.28
2023-03-10T14:15:55.718Z,97592.22
2023-03-10T14:20:57.022Z,97598.72
2023-03-10T14:25:59.377Z,97603.97
2023-03-10T14:31:02.572Z,97676.81
2023-03-10T14:36:12.078Z,97712.91
2023-03-10T14:41:15.246Z,97725.66
2023-03-10T14:46:16.163Z,97740.19
2023-03-10T14:51:34.564Z,97739.41
2023-03-10T14:56:37.583Z,97733.75
2023-03-10T15:01:38.335Z,97737.00
2023-03-10T15:06:39.119Z,97732.28
2023-03-10T15:11:42.122Z,97733.34
2023-03-10T15:16:42.875Z,97732.94
2023-03-10T15:21:43.567Z,97718.91
2023-03-10T15:26:45.786Z,97719.53
2023-03-10T15:31:46.897Z,97705.41
2023-03-10T15:36:47.699Z,97714.78
2023-03-10T15:41:50.286Z,97699.75
2023-03-10T15:46:55.008Z,97690.75
2023-03-10T15:51:56.156Z,97687.97
2023-03-10T15:56:58.116Z,97684.06
2023-03-10T16:01:58.984Z,97682.25
2023-03-10T16:07:03.365Z,97681.25
2023-03-10T16:12:06.322Z,97693.72
2023-03-10T16:17:07.045Z,97691.06
2023-03-10T16:22:10.307Z,97686.72
2023-03-10T16:27:13.060Z,97682.88
2023-03-10T16:32:14.953Z,97691.28
2023-03-10T16:37:15.739Z,97690.19
2023-03-10T16:42:18.341Z,97699.03
2023-03-10T16:47:19.050Z,97693.63
2023-03-10T16:52:19.721Z,97688.06
2023-03-10T16:57:21.811Z,97689.94
2023-03-10T17:02:22.480Z,97681.78
2023-03-10T17:07:23.293Z,97680.00
2023-03-10T17:12:25.274Z,97675.72
2023-03-10T17:17:26.001Z,97688.56
2023-03-10T17:22:26.795Z,97699.19
2023-03-10T17:27:29.023Z,97695.34
2023-03-10T17:32:30.764Z,97684.25
2023-03-10T17:37:31.616Z,97684.56
2023-03-10T17:42:33.680Z,97696.25
2023-03-10T17:47:34.381Z,97686.44
2023-03-10T17:52:35.082Z,97682.00
2023-03-10T17:57:39.048Z,97675.56
2023-03-10T18:02:41.191Z,97684.09
2023-03-10T18:07:41.981Z,97686.25
2023-03-10T18:12:44.029Z,97675.13
2023-03-10T18:17:44.752Z,97668.00
2023-03-10T18:22:45.650Z,97661.63
2023-03-10T18:27:47.912Z,97653.09
2023-03-10T18:32:48.655Z,97645.66
2023-03-10T18:37:49.376Z,97644.81
2023-03-10T18:42:51.414Z,97645.97
2023-03-10T18:47:52.190Z,97637.34
2023-03-10T18:52:52.937Z,97636.47
2023-03-10T18:57:55.152Z,97638.97
2023-03-10T19:02:55.979Z,97633.44
2023-03-10T19:07:56.885Z,97626.22
2023-03-10T19:12:59.084Z,97624.75
2023-03-10T19:17:59.887Z,97625.47
2023-03-10T19:23:00.616Z,97614.28
2023-03-10T19:28:02.666Z,97610.34
2023-03-10T19:33:03.640Z,97607.88
2023-03-10T19:38:04.369Z,97606.38
2023-03-10T19:43:06.444Z,97605.47
2023-03-10T19:48:07.523Z,97603.47
2023-03-10T19:53:08.193Z,97608.06
2023-03-10T19:58:10.327Z,97609.31
2023-03-10T20:03:11.019Z,97610.25
2023-03-10T20:08:11.715Z,97609.50
2023-03-10T20:13:14.295Z,97626.06
2023-03-10T20:18:18.369Z,97628.34
2023-03-10T20:23:19.080Z,97618.44
2023-03-10T20:28:21.129Z,97621.81
2023-03-10T20:33:21.928Z,97623.22
2023-03-10T20:38:22.845Z,97617.81
2023-03-10T20:43:24.875Z,97631.53
2023-03-10T20:48:25.609Z,97642.88
2023-03-10T20:53:26.353Z,97643.50
2023-03-10T20:58:28.804Z,97641.16
2023-03-10T21:03:29.451Z,97649.78
2023-03-10T21:08:30.144Z,97646.59
2023-03-10T21:13:32.386Z,97646.44
2023-03-10T21:18:33.174Z,97649.56
2023-03-10T21:23:35.672Z,97652.16
2023-03-10T21:28:42.433Z,97653.53
2023-03-10T21:33:43.315Z,97664.28
2023-03-10T21:38:44.066Z,97649.78
2023-03-10T21:43:46.112Z,97664.94
2023-03-10T21:48:46.930Z,97671.72
2023-03-10T21:53:48.281Z,97661.44
2023-03-10T21:58:50.540Z,97657.44
2023-03-10T22:03:51.390Z,97653.78
2023-03-10T22:08:52.063Z,97650.66
2023-03-10T22:13:54.461Z,97657.75
2023-03-10T22:18:55.153Z,97652.84
2023-03-10T22:23:55.817Z,97683.25
2023-03-10T22:28:57.835Z,97677.00
2023-03-10T22:33:58.502Z,97679.19
2023-03-10T22:38:59.161Z,97689.03
2023-03-10T22:44:01.149Z,97686.78
2023-03-10T22:49:01.888Z,97684.75
2023-03-10T22:54:03.828Z,97701.31
2023-03-10T22:59:06.000Z,97687.47
2023-03-10T23:04:06.978Z,97700.81
2023-03-10T23:09:10.380Z,97699.38
2023-03-10T23:14:12.739Z,97695.25
2023-03-10T23:19:13.463Z,97708.50
2023-03-10T23:24:14.191Z,97703.78
2023-03-10T23:29:19.486Z,97710.44
2023-03-10T23:34:20.188Z,97725.41
2023-03-10T23:39:20.882Z,97744.72
2023-03-10T23:44:22.988Z,97799.00
2023-03-10T23:49:23.707Z,97833.19
2023-03-10T23:54:24.466Z,97874.19
2023-03-10T23:59:26.726Z,97892.56
